Time;durP1;ratioP1;P1;durP2;ratioP2;P2;SDS_P1;SDS_P2;PMS_P1;PMS_P2;Temp;Humidity;BMP_temperature;BMP_pressure;BME280_temperature;BME280_humidity;BME280_pressure;Samples;Min_cycle;Max_cycle;Signal;HPM_P1;HPM_P2
2021/06/08 00:00:49;;;;;;;18.02;11.48;;;21.80;77.00;;;;;;2376593;54;20981;-68
2021/06/08 00:03:16;;;;;;;19.55;11.77;;;21.80;77.00;;;;;;2305669;54;21054;-71
2021/06/08 00:05:44;;;;;;;18.73;12.07;;;21.70;76.90;;;;;;2304998;54;20988;-74
2021/06/08 00:08:10;;;;;;;18.35;11.30;;;21.70;76.80;;;;;;2300609;54;20977;-68
2021/06/08 00:11:10;;;;;;;18.12;11.77;;;21.70;76.80;;;;;;2306336;55;21049;-72
2021/06/08 00:14:12;;;;;;;16.95;11.10;;;21.80;76.20;;;;;;2305633;54;20992;-71
2021/06/08 00:16:38;;;;;;;17.90;10.10;;;21.70;76.10;;;;;;2292440;54;20921;-69
2021/06/08 00:19:05;;;;;;;20.70;11.90;;;21.70;76.90;;;;;;2311866;54;20988;-68
2021/06/08 00:21:32;;;;;;;19.20;11.40;;;21.70;76.90;;;;;;2296730;58;21665;-71
2021/06/08 00:23:58;;;;;;;23.27;12.88;;;21.70;76.90;;;;;;2543187;54;21109;-72
2021/06/08 00:26:26;;;;;;;17.52;10.73;;;21.70;76.90;;;;;;2307361;54;21873;-73
2021/06/08 00:28:52;;;;;;;18.52;10.85;;;21.70;76.90;;;;;;2308608;54;20985;-69
2021/06/08 00:31:19;;;;;;;17.80;11.07;;;21.70;76.90;;;;;;2393417;54;21045;-70
2021/06/08 00:33:47;;;;;;;19.98;11.52;;;21.70;76.90;;;;;;2311641;54;20997;-74
2021/06/08 00:36:14;;;;;;;17.42;10.90;;;21.70;77.00;;;;;;2337114;54;21870;-69
2021/06/08 00:38:41;;;;;;;17.42;10.75;;;21.70;77.00;;;;;;2292740;54;23026;-69
2021/06/08 00:41:07;;;;;;;19.50;12.37;;;21.70;77.00;;;;;;2310906;54;20993;-73
2021/06/08 00:43:34;;;;;;;19.42;12.37;;;21.70;76.90;;;;;;2308718;54;20949;-69
2021/06/08 00:46:01;;;;;;;21.98;12.93;;;21.70;76.80;;;;;;2313592;54;21048;-69
2021/06/08 00:48:27;;;;;;;21.35;12.27;;;21.70;76.80;;;;;;2530069;54;21589;-69
2021/06/08 00:54:33;;;;;;;17.55;10.52;;;21.70;76.20;;;;;;2546417;54;21044;-72
2021/06/08 00:56:59;;;;;;;19.42;12.20;;;21.60;76.80;;;;;;2307308;54;21047;-69
2021/06/08 00:59:26;;;;;;;21.48;11.75;;;21.60;76.80;;;;;;2311557;53;21060;-73
2021/06/08 01:01:52;;;;;;;19.08;11.93;;;21.60;76.90;;;;;;2302797;54;21043;-74
2021/06/08 01:04:18;;;;;;;19.40;11.85;;;21.60;76.90;;;;;;2301579;54;21040;-73
2021/06/08 01:06:48;;;;;;;17.70;11.32;;;21.60;77.00;;;;;;2315820;54;20969;-68
2021/06/08 01:09:15;;;;;;;19.20;11.90;;;21.60;77.10;;;;;;2293020;55;21016;-72
2021/06/08 01:12:11;;;;;;;19.17;12.30;;;21.60;77.00;;;;;;2315769;54;21066;-68
2021/06/08 01:14:37;;;;;;;20.70;12.52;;;21.60;76.30;;;;;;2309682;54;21068;-68
2021/06/08 01:17:04;;;;;;;18.00;11.38;;;21.60;77.10;;;;;;2301970;54;20941;-68
2021/06/08 01:19:30;;;;;;;21.25;11.82;;;21.60;77.10;;;;;;2313203;54;20976;-71
2021/06/08 01:21:56;;;;;;;18.23;11.35;;;21.60;77.10;;;;;;2542593;54;21004;-73
2021/06/08 01:24:22;;;;;;;19.12;11.05;;;21.60;77.10;;;;;;2315579;53;21001;-68
2021/06/08 01:26:49;;;;;;;20.35;12.27;;;21.60;77.10;;;;;;2311867;54;20978;-69
2021/06/08 01:29:15;;;;;;;20.00;12.13;;;21.60;77.10;;;;;;2541167;54;20954;-69
2021/06/08 01:31:41;;;;;;;18.45;11.82;;;21.60;77.10;;;;;;2310507;54;21044;-68
2021/06/08 01:34:07;;;;;;;19.70;12.52;;;21.60;77.10;;;;;;2299400;54;20996;-69
2021/06/08 01:36:41;;;;;;;21.58;12.98;;;21.60;77.20;;;;;;2315407;53;21044;-72
2021/06/08 01:39:10;;;;;;;22.17;12.30;;;21.60;76.80;;;;;;2294153;54;21001;-69
2021/06/08 01:41:37;;;;;;;23.17;13.30;;;21.60;77.00;;;;;;2309915;54;21339;-72
2021/06/08 01:44:05;;;;;;;21.05;12.70;;;21.60;77.10;;;;;;2316736;53;21018;-69
2021/06/08 01:46:31;;;;;;;19.70;12.18;;;21.60;77.00;;;;;;2311888;53;21430;-68
2021/06/08 01:48:57;;;;;;;17.75;10.82;;;21.60;77.00;;;;;;2312176;54;21731;-70
2021/06/08 01:54:59;;;;;;;16.25;9.48;;;21.60;76.70;;;;;;2312894;53;21132;-69
2021/06/08 01:57:40;;;;;;;11.18;6.43;;;21.50;75.50;;;;;;2314289;53;21830;-70
2021/06/08 02:01:02;;;;;;;11.40;7.35;;;21.40;75.30;;;;;;2315580;54;20989;-71
2021/06/08 02:03:33;;;;;;;14.43;8.32;;;21.40;75.40;;;;;;2306873;54;20973;-70
2021/06/08 02:06:36;;;;;;;13.32;8.50;;;21.30;75.80;;;;;;2295390;54;20932;-71
2021/06/08 02:12:29;;;;;;;14.43;9.13;;;21.10;75.70;;;;;;2544507;53;21085;-70
2021/06/08 02:18:25;;;;;;;15.00;9.15;;;21.00;75.90;;;;;;2314712;53;20961;-71
2021/06/08 02:20:52;;;;;;;16.60;9.40;;;21.00;76.40;;;;;;2311735;54;21045;-69
2021/06/08 02:23:20;;;;;;;13.27;8.40;;;21.00;76.60;;;;;;2309321;53;20937;-71
2021/06/08 02:25:47;;;;;;;14.32;8.55;;;20.90;76.80;;;;;;2314103;54;21033;-70
2021/06/08 02:28:14;;;;;;;14.40;9.18;;;20.90;77.00;;;;;;2306911;53;20985;-70
2021/06/08 02:30:56;;;;;;;16.25;9.38;;;20.80;77.00;;;;;;2302984;54;21044;-71
2021/06/08 02:33:25;;;;;;;14.10;8.77;;;20.80;76.80;;;;;;2307930;56;20988;-71
2021/06/08 02:35:52;;;;;;;18.40;11.02;;;20.80;77.00;;;;;;2310833;54;20981;-70
2021/06/08 02:38:18;;;;;;;14.52;9.35;;;20.80;77.10;;;;;;2310071;54;21914;-71
2021/06/08 02:40:44;;;;;;;16.48;10.23;;;20.80;77.20;;;;;;2313247;54;21851;-70
2021/06/08 02:43:13;;;;;;;16.45;9.68;;;20.70;77.10;;;;;;2306253;54;20977;-70
2021/06/08 02:45:39;;;;;;;17.55;10.63;;;20.70;77.20;;;;;;2313019;54;21004;-70
2021/06/08 02:48:07;;;;;;;18.95;10.95;;;20.70;77.30;;;;;;2527650;54;21106;-69
2021/06/08 02:50:34;;;;;;;18.37;10.60;;;20.70;77.50;;;;;;2306202;54;21779;-73
2021/06/08 02:53:01;;;;;;;18.27;10.88;;;20.70;77.60;;;;;;2296223;54;21011;-70
2021/06/08 02:55:28;;;;;;;16.92;10.43;;;20.70;77.70;;;;;;2307396;54;21009;-71
2021/06/08 02:57:55;;;;;;;19.00;10.85;;;20.60;77.70;;;;;;2312614;54;20989;-69
2021/06/08 03:00:22;;;;;;;18.50;11.05;;;20.60;77.80;;;;;;2313978;53;20999;-70
2021/06/08 03:03:01;;;;;;;19.58;11.38;;;20.60;77.70;;;;;;2306090;54;20970;-71
2021/06/08 03:05:31;;;;;;;16.12;9.52;;;20.60;77.50;;;;;;2309499;53;21454;-71
2021/06/08 03:08:00;;;;;;;18.00;11.02;;;20.60;77.70;;;;;;2334069;54;20987;-70
2021/06/08 03:10:28;;;;;;;16.17;10.40;;;20.60;77.80;;;;;;2305309;54;21016;-71
2021/06/08 03:16:17;;;;;;;15.68;8.90;;;20.60;77.60;;;;;;2315053;54;21625;-72
2021/06/08 03:18:50;;;;;;;16.02;10.00;;;20.60;78.00;;;;;;2309576;53;20997;-71
2021/06/08 03:21:23;;;;;;;18.83;10.93;;;20.60;77.90;;;;;;2312717;54;21021;-69
2021/06/08 03:23:51;;;;;;;16.95;10.88;;;20.60;78.00;;;;;;2539281;54;21013;-72
2021/06/08 03:26:18;;;;;;;16.73;9.98;;;20.60;78.10;;;;;;2308727;54;20973;-71
2021/06/08 03:28:45;;;;;;;16.52;9.98;;;20.60;78.20;;;;;;2298507;54;21902;-70
2021/06/08 03:31:11;;;;;;;16.10;9.35;;;20.60;78.20;;;;;;2312405;54;21854;-73
2021/06/08 03:33:50;;;;;;;19.35;11.32;;;20.60;78.20;;;;;;2295139;54;21414;-69
2021/06/08 03:36:16;;;;;;;13.62;9.27;;;20.60;78.00;;;;;;2315106;54;20973;-71
2021/06/08 03:38:43;;;;;;;13.98;9.57;;;20.60;78.30;;;;;;2510768;54;20995;-71
2021/06/08 03:41:09;;;;;;;18.05;9.80;;;20.60;78.30;;;;;;2305328;53;21017;-71
2021/06/08 03:43:35;;;;;;;14.98;9.93;;;20.60;78.30;;;;;;2313966;54;21033;-70
2021/06/08 03:46:02;;;;;;;18.83;11.12;;;20.60;78.20;;;;;;2304791;54;21020;-70
2021/06/08 03:48:28;;;;;;;15.25;10.18;;;20.60;78.30;;;;;;2312533;54;21660;-73
2021/06/08 03:50:55;;;;;;;14.82;9.57;;;20.60;78.40;;;;;;2524811;54;20996;-72
2021/06/08 03:53:22;;;;;;;16.92;10.73;;;20.60;78.40;;;;;;2302987;54;20963;-70
2021/06/08 03:55:51;;;;;;;14.68;9.93;;;20.60;78.50;;;;;;2290165;55;21005;-71
2021/06/08 03:58:18;;;;;;;13.48;8.57;;;20.60;78.50;;;;;;2536276;54;20956;-71
2021/06/08 04:04:13;;;;;;;13.80;9.00;;;20.60;78.20;;;;;;2313582;54;21012;-69
2021/06/08 04:06:40;;;;;;;13.40;8.63;;;20.60;78.50;;;;;;2431376;53;20973;-70
2021/06/08 04:09:08;;;;;;;12.98;8.68;;;20.60;78.50;;;;;;2439078;54;21033;-70
2021/06/08 04:11:37;;;;;;;15.23;10.18;;;20.60;78.50;;;;;;2300838;54;20995;-72
2021/06/08 04:14:04;;;;;;;13.02;8.95;;;20.70;78.40;;;;;;2311180;54;20961;-71
2021/06/08 04:16:30;;;;;;;13.95;8.73;;;20.60;79.10;;;;;;2306165;54;21045;-69
2021/06/08 04:18:56;;;;;;;16.30;9.63;;;20.70;78.50;;;;;;2407937;54;20988;-70
2021/06/08 04:21:24;;;;;;;14.10;9.38;;;20.70;78.60;;;;;;2312403;53;21041;-69
2021/06/08 04:24:00;;;;;;;15.95;9.63;;;20.70;78.50;;;;;;2308998;54;20984;-72
2021/06/08 04:26:27;;;;;;;14.38;9.35;;;20.70;78.30;;;;;;2308155;54;21025;-70
2021/06/08 04:28:53;;;;;;;14.13;9.00;;;20.70;78.60;;;;;;2297342;54;21024;-69
2021/06/08 04:31:22;;;;;;;14.50;9.63;;;20.70;78.60;;;;;;2312217;54;21482;-70
2021/06/08 04:33:57;;;;;;;14.45;9.35;;;20.70;78.50;;;;;;2307481;54;21064;-72
2021/06/08 04:36:24;;;;;;;15.48;9.90;;;20.70;78.40;;;;;;2310046;53;21578;-71
2021/06/08 04:38:52;;;;;;;14.68;9.35;;;20.70;78.60;;;;;;2300918;53;20988;-71
2021/06/08 04:41:19;;;;;;;16.35;9.98;;;20.70;78.60;;;;;;2311066;54;21001;-70
2021/06/08 04:43:53;;;;;;;14.35;9.82;;;20.70;78.70;;;;;;2539153;54;20969;-71
2021/06/08 04:46:20;;;;;;;14.23;10.20;;;20.70;78.40;;;;;;2306743;54;20953;-72
2021/06/08 04:48:46;;;;;;;15.60;10.60;;;20.70;78.70;;;;;;2476370;54;21560;-70
2021/06/08 04:51:12;;;;;;;14.73;10.50;;;20.70;78.70;;;;;;2499026;54;20977;-72
2021/06/08 04:53:39;;;;;;;14.07;10.50;;;20.80;78.70;;;;;;2305415;54;20928;-70
2021/06/08 04:56:09;;;;;;;14.55;10.38;;;20.80;78.60;;;;;;2316276;54;21458;-71
2021/06/08 05:02:06;;;;;;;15.68;9.80;;;20.80;78.30;;;;;;2314016;54;21884;-71
2021/06/08 05:04:32;;;;;;;15.63;10.68;;;20.80;78.60;;;;;;2299377;54;20965;-70
2021/06/08 05:06:59;;;;;;;15.93;10.32;;;20.80;78.70;;;;;;2309735;54;20937;-70
2021/06/08 05:09:30;;;;;;;13.98;10.00;;;20.80;78.70;;;;;;2311428;54;20941;-72
2021/06/08 05:11:58;;;;;;;14.57;10.00;;;20.80;78.60;;;;;;2313777;54;21005;-70
2021/06/08 05:14:34;;;;;;;17.00;11.15;;;20.80;78.60;;;;;;2313109;53;20989;-73
2021/06/08 05:17:00;;;;;;;17.80;11.52;;;20.80;78.40;;;;;;2300512;54;21034;-73
2021/06/08 05:19:27;;;;;;;21.55;11.63;;;20.80;78.70;;;;;;2311942;53;21012;-70
2021/06/08 05:21:53;;;;;;;16.60;11.18;;;20.80;78.60;;;;;;2313845;54;21024;-72
2021/06/08 05:24:28;;;;;;;16.40;10.98;;;20.80;78.70;;;;;;2299073;54;21004;-70
2021/06/08 05:26:54;;;;;;;17.80;11.70;;;20.80;78.50;;;;;;2314122;54;20993;-71
2021/06/08 05:29:22;;;;;;;14.48;10.02;;;20.80;78.70;;;;;;2301281;53;21034;-69
2021/06/08 05:31:48;;;;;;;16.20;10.75;;;20.80;78.70;;;;;;2315683;54;21021;-71
2021/06/08 05:34:33;;;;;;;14.90;10.75;;;20.90;78.80;;;;;;2306846;54;21107;-72
2021/06/08 05:37:06;;;;;;;15.45;10.98;;;20.90;78.50;;;;;;2314585;54;21005;-70
2021/06/08 05:39:36;;;;;;;16.87;11.50;;;20.90;78.70;;;;;;2307760;53;20981;-71
2021/06/08 05:42:06;;;;;;;14.55;10.63;;;20.90;78.80;;;;;;2306794;54;21778;-70
2021/06/08 05:48:00;;;;;;;15.52;9.75;;;20.90;78.70;;;;;;2541467;54;21009;-70
2021/06/08 05:50:26;;;;;;;14.77;9.95;;;20.90;79.10;;;;;;2310402;54;21853;-71
2021/06/08 05:52:55;;;;;;;17.17;10.32;;;21.00;79.80;;;;;;2309766;54;21911;-70
2021/06/08 05:55:47;;;;;;;14.95;10.65;;;21.00;79.10;;;;;;2310110;54;20975;-70
2021/06/08 05:58:16;;;;;;;14.07;10.10;;;21.00;78.50;;;;;;2308670;54;21033;-73
2021/06/08 06:00:42;;;;;;;14.77;10.80;;;21.00;78.90;;;;;;2302466;54;21088;-70
2021/06/08 06:03:09;;;;;;;14.02;10.05;;;21.00;78.90;;;;;;2313044;54;21042;-70
2021/06/08 06:05:38;;;;;;;14.60;10.45;;;21.00;78.90;;;;;;2313128;54;20933;-70
2021/06/08 06:08:05;;;;;;;14.68;10.77;;;21.10;79.00;;;;;;2427485;54;20965;-72
2021/06/08 06:10:33;;;;;;;14.13;10.15;;;21.10;79.10;;;;;;2296841;54;21443;-73
2021/06/08 06:13:02;;;;;;;14.38;10.00;;;21.10;79.20;;;;;;2293991;54;21034;-70
2021/06/08 06:15:28;;;;;;;15.23;10.85;;;21.10;79.20;;;;;;2309439;54;20993;-72
2021/06/08 06:17:55;;;;;;;15.60;10.75;;;21.20;79.30;;;;;;2309608;54;20965;-72
2021/06/08 06:23:48;;;;;;;14.38;9.90;;;21.20;78.70;;;;;;2302466;54;21915;-73
2021/06/08 06:26:15;;;;;;;13.30;9.32;;;21.30;79.20;;;;;;2300143;53;20937;-69
2021/06/08 06:28:41;;;;;;;16.10;11.57;;;21.30;79.30;;;;;;2313364;54;21048;-71
2021/06/08 06:31:44;;;;;;;17.15;11.30;;;21.30;79.40;;;;;;2310876;54;21013;-70
2021/06/08 06:34:11;;;;;;;19.75;11.38;;;21.30;78.80;;;;;;2313649;53;20973;-73
2021/06/08 06:36:38;;;;;;;15.63;11.25;;;21.40;79.30;;;;;;2282189;54;21005;-71
2021/06/08 06:39:08;;;;;;;14.77;10.60;;;21.40;79.20;;;;;;2312639;54;21056;-70
2021/06/08 06:41:40;;;;;;;14.40;10.65;;;21.40;79.10;;;;;;2313210;54;21477;-70
2021/06/08 06:44:06;;;;;;;15.27;10.23;;;21.40;78.90;;;;;;2314939;54;21065;-70
2021/06/08 06:46:32;;;;;;;13.45;9.63;;;21.50;79.10;;;;;;2542507;53;21013;-73
2021/06/08 06:48:59;;;;;;;15.52;10.55;;;21.50;79.10;;;;;;2315183;54;21493;-72
2021/06/08 06:51:27;;;;;;;15.82;10.13;;;21.50;79.20;;;;;;2309950;54;21024;-70
2021/06/08 06:53:57;;;;;;;14.75;9.88;;;21.50;79.10;;;;;;2312587;54;21000;-73
2021/06/08 06:56:23;;;;;;;15.05;10.60;;;21.60;79.20;;;;;;2312034;54;21069;-71
2021/06/08 06:58:54;;;;;;;15.80;11.73;;;21.60;79.10;;;;;;2540622;54;21001;-72
2021/06/08 07:01:23;;;;;;;15.13;11.05;;;21.60;79.40;;;;;;2312757;54;21010;-72
2021/06/08 07:03:53;;;;;;;16.20;11.48;;;21.60;79.40;;;;;;2310491;54;20993;-70
2021/06/08 07:06:20;;;;;;;16.00;11.77;;;21.70;78.80;;;;;;2318009;53;20997;-72
2021/06/08 07:08:57;;;;;;;15.15;10.57;;;21.70;79.10;;;;;;2351206;54;21088;-72
2021/06/08 07:11:24;;;;;;;18.67;13.60;;;21.70;78.70;;;;;;1918203;54;23497437;-71
2021/06/08 07:13:50;;;;;;;15.55;11.98;;;21.60;79.10;;;;;;2278289;54;21022;-69
2021/06/08 07:16:17;;;;;;;14.90;11.52;;;21.80;79.10;;;;;;2310299;54;20997;-72
2021/06/08 07:18:45;;;;;;;13.18;10.75;;;21.80;79.10;;;;;;2310345;54;21889;-71
2021/06/08 07:21:15;;;;;;;16.10;11.05;;;21.80;78.80;;;;;;2312849;54;21009;-71
2021/06/08 07:23:43;;;;;;;15.32;10.80;;;21.90;78.80;;;;;;2396788;54;21955;-75
2021/06/08 07:26:11;;;;;;;14.68;11.10;;;21.90;78.90;;;;;;2312548;54;21033;-71
2021/06/08 07:28:38;;;;;;;16.20;11.50;;;21.90;79.00;;;;;;2314211;53;20966;-71
2021/06/08 07:31:04;;;;;;;15.95;12.02;;;21.90;78.90;;;;;;2524428;54;21939;-72
2021/06/08 07:33:48;;;;;;;16.08;11.85;;;22.00;78.90;;;;;;2311156;53;21029;-73
2021/06/08 07:36:21;;;;;;;16.77;11.68;;;22.00;78.10;;;;;;2305939;54;21246;-75
2021/06/08 07:39:02;;;;;;;15.02;11.30;;;22.00;78.50;;;;;;2311935;54;21025;-70
2021/06/08 07:43:01;;;;;;;13.50;10.45;;;22.10;78.30;;;;;;2302045;54;22402;-72
2021/06/08 07:45:34;;;;;;;12.68;9.18;;;22.10;77.90;;;;;;2314063;54;21007;-72
2021/06/08 07:48:00;;;;;;;14.20;10.52;;;22.10;78.90;;;;;;2307831;54;21045;-71
2021/06/08 07:50:30;;;;;;;14.30;11.25;;;22.20;79.20;;;;;;2310188;54;20961;-70
2021/06/08 07:52:57;;;;;;;13.43;10.68;;;22.20;79.10;;;;;;2311295;54;21009;-70
2021/06/08 07:55:23;;;;;;;17.45;12.60;;;22.30;79.20;;;;;;2317557;53;21017;-70
2021/06/08 07:57:50;;;;;;;16.50;12.60;;;22.30;79.10;;;;;;2540350;54;20993;-70
2021/06/08 08:00:16;;;;;;;14.50;11.77;;;22.30;79.10;;;;;;2314044;54;20909;-71
2021/06/08 08:02:43;;;;;;;13.75;10.95;;;22.40;79.00;;;;;;2310516;54;20987;-71
2021/06/08 08:05:13;;;;;;;16.95;12.60;;;22.40;78.90;;;;;;2540130;54;20990;-74
2021/06/08 08:07:40;;;;;;;15.38;11.60;;;22.50;78.90;;;;;;2542292;54;20953;-71
2021/06/08 08:10:27;;;;;;;14.25;11.10;;;22.50;78.70;;;;;;2306572;54;21438;-70
2021/06/08 08:12:57;;;;;;;12.30;9.90;;;22.50;77.60;;;;;;2376072;54;21028;-74
2021/06/08 08:15:23;;;;;;;14.63;11.10;;;22.60;78.50;;;;;;2298456;54;21881;-76
2021/06/08 08:17:49;;;;;;;16.23;12.20;;;22.60;78.40;;;;;;2312120;54;20957;-70
2021/06/08 08:20:18;;;;;;;15.85;11.93;;;22.60;78.40;;;;;;2310657;54;22017;-71
2021/06/08 08:22:44;;;;;;;15.30;12.07;;;22.60;78.60;;;;;;2309787;54;20981;-72
2021/06/08 08:25:11;;;;;;;16.98;12.52;;;22.70;78.80;;;;;;2310044;54;20924;-71
2021/06/08 08:27:38;;;;;;;14.77;11.12;;;22.70;78.30;;;;;;2310455;54;21009;-76
2021/06/08 08:30:05;;;;;;;19.35;12.85;;;22.70;78.00;;;;;;2310548;54;21024;-70
2021/06/08 08:32:32;;;;;;;15.25;12.27;;;22.70;77.60;;;;;;2312964;54;21013;-71
2021/06/08 08:34:59;;;;;;;15.10;11.82;;;22.80;77.50;;;;;;2312533;54;20940;-72
2021/06/08 08:37:28;;;;;;;14.50;11.60;;;22.80;77.50;;;;;;2309472;54;21020;-70
2021/06/08 08:39:54;;;;;;;15.30;11.73;;;22.70;77.40;;;;;;2314551;53;20957;-70
2021/06/08 08:42:23;;;;;;;16.30;12.45;;;22.80;77.50;;;;;;2310004;54;21523;-74
2021/06/08 08:44:49;;;;;;;15.63;13.30;;;22.80;77.50;;;;;;2310182;54;21129;-70
2021/06/08 08:47:16;;;;;;;18.40;13.55;;;22.80;77.40;;;;;;2286985;54;21019;-69
2021/06/08 08:49:43;;;;;;;17.33;13.52;;;22.80;77.30;;;;;;2337109;54;20980;-73
2021/06/08 08:52:09;;;;;;;19.08;14.07;;;22.80;77.20;;;;;;2308452;54;21000;-70
2021/06/08 08:54:36;;;;;;;19.60;14.38;;;22.80;77.00;;;;;;2311039;54;21022;-73
2021/06/08 08:57:07;;;;;;;18.42;13.43;;;22.80;76.90;;;;;;2309995;54;20938;-69
2021/06/08 08:59:33;;;;;;;19.02;14.52;;;22.80;76.70;;;;;;2302392;54;20953;-69
2021/06/08 09:02:02;;;;;;;20.23;14.95;;;22.70;76.80;;;;;;2309644;54;21001;-73
2021/06/08 09:04:28;;;;;;;16.35;12.98;;;22.70;76.80;;;;;;2314379;54;21438;-71
2021/06/08 09:06:55;;;;;;;17.25;13.85;;;22.70;76.70;;;;;;2310377;54;20977;-69
2021/06/08 09:09:22;;;;;;;19.58;14.63;;;22.70;76.80;;;;;;2308657;54;20969;-70
2021/06/08 09:11:48;;;;;;;16.40;13.07;;;22.60;76.60;;;;;;2315874;54;21558;-70
2021/06/08 09:14:15;;;;;;;17.58;13.48;;;22.70;76.80;;;;;;2307380;54;21625;-69
2021/06/08 09:16:42;;;;;;;17.12;12.90;;;22.70;76.90;;;;;;2311288;54;21001;-69
2021/06/08 09:19:09;;;;;;;17.85;13.85;;;22.70;77.00;;;;;;2313878;54;21589;-70
2021/06/08 09:21:38;;;;;;;15.57;12.65;;;22.70;76.90;;;;;;2305916;54;20993;-70
2021/06/08 09:25:07;;;;;;;16.77;13.02;;;22.70;77.80;;;;;;2305436;54;20936;-69
2021/06/08 09:27:33;;;;;;;15.02;11.07;;;22.70;76.10;;;;;;2310308;53;21016;-73
2021/06/08 09:29:59;;;;;;;18.40;13.80;;;22.70;77.30;;;;;;2312288;54;21016;-69
2021/06/08 09:32:27;;;;;;;19.20;14.45;;;22.70;77.30;;;;;;2311999;54;21641;-76
2021/06/08 09:34:54;;;;;;;20.92;16.10;;;22.70;77.30;;;;;;2540775;54;21002;-70
2021/06/08 09:37:41;;;;;;;18.65;14.55;;;22.70;77.30;;;;;;2312591;54;21801;-73
2021/06/08 09:41:50;;;;;;;19.20;14.70;;;22.70;76.40;;;;;;2308346;54;20961;-72
2021/06/08 09:44:18;;;;;;;16.98;13.57;;;22.80;76.30;;;;;;2448893;54;20962;-71
2021/06/08 09:46:48;;;;;;;21.65;15.55;;;22.80;77.70;;;;;;2534255;54;21115;-75
2021/06/08 09:49:19;;;;;;;20.92;17.40;;;22.80;77.70;;;;;;2303034;54;21005;-70
2021/06/08 09:51:56;;;;;;;21.20;17.73;;;22.90;78.30;;;;;;2308964;54;20957;-71
2021/06/08 09:54:44;;;;;;;18.95;16.85;;;23.00;77.80;;;;;;2303000;54;21069;-72
2021/06/08 09:57:22;;;;;;;19.67;16.35;;;23.00;78.20;;;;;;2310524;54;20973;-73
2021/06/08 09:59:58;;;;;;;22.62;17.42;;;23.10;77.80;;;;;;2295247;54;21000;-72
2021/06/08 10:02:49;;;;;;;20.15;17.25;;;23.10;77.80;;;;;;2310767;54;20970;-72
2021/06/08 10:05:27;;;;;;;21.40;17.60;;;23.20;77.10;;;;;;2481559;54;20997;-74
2021/06/08 10:08:26;;;;;;;22.10;18.35;;;23.20;77.40;;;;;;2545451;53;21004;-70
2021/06/08 10:10:56;;;;;;;25.12;19.30;;;23.30;76.50;;;;;;2309496;54;21048;-75
2021/06/08 10:13:23;;;;;;;22.67;18.92;;;23.30;77.50;;;;;;2380245;54;21579;-76
2021/06/08 10:15:58;;;;;;;21.00;17.87;;;23.30;77.10;;;;;;2343766;54;21211;-73
2021/06/08 10:18:40;;;;;;;25.05;18.25;;;23.30;76.90;;;;;;2356256;53;21037;-70
2021/06/08 10:21:09;;;;;;;21.80;17.87;;;23.30;76.80;;;;;;2455935;54;20945;-71
2021/06/08 10:23:35;;;;;;;22.30;18.70;;;23.30;76.40;;;;;;2503742;54;21052;-70
2021/06/08 10:26:25;;;;;;;24.10;17.92;;;23.30;76.50;;;;;;2307525;54;20993;-70
2021/06/08 10:28:51;;;;;;;21.67;17.80;;;23.30;75.40;;;;;;2279117;54;20918;-70
2021/06/08 10:31:18;;;;;;;21.27;17.80;;;23.30;76.60;;;;;;2307741;54;21576;-70
2021/06/08 10:33:57;;;;;;;24.25;18.62;;;23.30;76.60;;;;;;2308350;54;21024;-70
2021/06/08 10:36:26;;;;;;;23.52;18.65;;;23.30;76.50;;;;;;2311226;53;21020;-70
2021/06/08 10:38:53;;;;;;;23.80;18.92;;;23.20;76.30;;;;;;2308639;54;21550;-70
2021/06/08 10:41:19;;;;;;;23.35;19.15;;;23.20;76.30;;;;;;2309183;54;21964;-72
2021/06/08 10:43:47;;;;;;;26.00;21.70;;;23.20;76.30;;;;;;2308669;54;21009;-70
2021/06/08 10:46:26;;;;;;;24.02;20.37;;;23.20;76.20;;;;;;2309572;54;21086;-70
2021/06/08 10:48:52;;;;;;;24.65;19.48;;;23.20;75.60;;;;;;2316034;54;21755;-70
2021/06/08 10:51:20;;;;;;;26.90;20.62;;;23.20;76.30;;;;;;2299593;54;20940;-71
2021/06/08 10:53:54;;;;;;;24.37;19.25;;;23.10;76.20;;;;;;2547986;53;21002;-74
2021/06/08 10:56:32;;;;;;;23.12;18.08;;;23.10;75.80;;;;;;2454465;54;20972;-71
2021/06/08 10:59:06;;;;;;;26.27;20.45;;;23.10;75.70;;;;;;2285695;53;21692;-74
2021/06/08 11:01:53;;;;;;;27.65;20.52;;;23.10;76.30;;;;;;2308989;53;20949;-73
2021/06/08 11:04:24;;;;;;;23.85;19.30;;;23.10;75.40;;;;;;2309985;53;21052;-70
2021/06/08 11:06:53;;;;;;;24.83;20.20;;;23.10;76.50;;;;;;2300575;54;21591;-72
2021/06/08 11:09:40;;;;;;;23.75;19.08;;;23.10;76.60;;;;;;2533103;54;21457;-70
2021/06/08 11:12:21;;;;;;;27.62;18.77;;;23.10;75.80;;;;;;2308509;53;20964;-73
2021/06/08 11:14:58;;;;;;;23.77;19.58;;;23.00;76.10;;;;;;2311709;53;21064;-70
2021/06/08 11:17:38;;;;;;;22.67;18.50;;;23.00;76.90;;;;;;2313832;54;20920;-71
2021/06/08 11:20:17;;;;;;;21.08;18.10;;;23.00;76.20;;;;;;2311175;54;21079;-70
2021/06/08 11:22:51;;;;;;;21.50;17.30;;;23.10;77.20;;;;;;2310716;54;20999;-71
2021/06/08 11:25:42;;;;;;;22.90;17.70;;;23.10;77.00;;;;;;2530370;53;21939;-70
2021/06/08 11:28:17;;;;;;;25.42;19.48;;;23.10;76.60;;;;;;2551339;53;21805;-70
2021/06/08 11:31:04;;;;;;;24.73;19.45;;;23.10;76.90;;;;;;2288883;54;20968;-70
2021/06/08 11:33:41;;;;;;;22.92;18.90;;;23.20;76.80;;;;;;2309527;54;21065;-70
2021/06/08 11:38:10;;;;;;;22.70;18.67;;;23.20;77.50;;;;;;2541584;53;21548;-70
2021/06/08 11:40:45;;;;;;;20.25;16.15;;;23.20;76.60;;;;;;2312519;53;20953;-71
2021/06/08 11:44:01;;;;;;;23.80;18.75;;;23.30;77.30;;;;;;2490031;54;21386;-71
2021/06/08 11:46:34;;;;;;;26.00;18.83;;;23.30;76.70;;;;;;2314782;53;21028;-71
2021/06/08 11:49:14;;;;;;;24.52;18.92;;;23.30;77.60;;;;;;2307755;54;20948;-75
2021/06/08 11:51:47;;;;;;;25.17;20.20;;;23.40;77.30;;;;;;2311416;53;22004;-70
2021/06/08 11:54:29;;;;;;;24.15;20.10;;;23.40;78.00;;;;;;2300019;53;20964;-72
2021/06/08 11:56:57;;;;;;;25.67;19.60;;;23.50;78.40;;;;;;2289980;54;21072;-70
2021/06/08 11:59:28;;;;;;;24.55;19.77;;;23.50;78.20;;;;;;2312708;53;20956;-73
2021/06/08 12:02:02;;;;;;;21.77;17.40;;;23.60;77.60;;;;;;2298741;54;20989;-74
2021/06/08 12:04:29;;;;;;;24.25;18.62;;;23.60;77.90;;;;;;2303441;54;21047;-70
2021/06/08 12:07:06;;;;;;;23.85;18.75;;;23.60;77.80;;;;;;2310332;53;20963;-70
2021/06/08 12:09:46;;;;;;;23.48;18.98;;;23.70;77.50;;;;;;2289172;54;21292;-70
2021/06/08 12:12:14;;;;;;;23.48;18.98;;;23.70;77.00;;;;;;2308168;53;21554;-76
2021/06/08 12:14:57;;;;;;;25.35;19.95;;;23.80;78.00;;;;;;2310311;54;20960;-72
2021/06/08 12:17:23;;;;;;;22.30;18.40;;;23.80;77.10;;;;;;2310004;54;20944;-71
2021/06/08 12:19:55;;;;;;;25.00;19.40;;;23.80;78.20;;;;;;2416766;53;20953;-70
2021/06/08 12:22:25;;;;;;;25.02;19.92;;;23.90;78.60;;;;;;2309044;54;20944;-71
2021/06/08 12:24:53;;;;;;;25.20;20.62;;;24.00;78.30;;;;;;2313364;54;20948;-70
2021/06/08 12:27:19;;;;;;;25.17;19.27;;;24.10;78.70;;;;;;2310337;54;22245;-70
2021/06/08 12:29:54;;;;;;;24.50;19.33;;;24.10;78.90;;;;;;2471043;54;20997;-70
2021/06/08 12:32:20;;;;;;;23.20;18.83;;;24.20;78.40;;;;;;2311057;54;21480;-71
2021/06/08 12:34:49;;;;;;;22.40;18.60;;;24.30;79.10;;;;;;2309470;54;20998;-72
2021/06/08 12:37:26;;;;;;;25.85;21.15;;;24.40;78.90;;;;;;2353017;54;20952;-75
2021/06/08 12:39:56;;;;;;;23.42;20.00;;;24.50;77.80;;;;;;2311645;54;21964;-73
2021/06/08 12:42:23;;;;;;;23.58;20.00;;;24.60;78.20;;;;;;2313712;54;21005;-74
2021/06/08 12:44:50;;;;;;;22.70;18.65;;;24.60;78.40;;;;;;2315145;53;21056;-70
2021/06/08 12:47:18;;;;;;;22.25;18.85;;;24.70;78.40;;;;;;2314543;53;21044;-71
2021/06/08 12:49:44;;;;;;;21.90;18.75;;;24.80;78.40;;;;;;2546154;54;21020;-70
2021/06/08 12:52:15;;;;;;;21.50;16.92;;;24.90;78.50;;;;;;2428807;54;21017;-71
2021/06/08 12:54:48;;;;;;;21.40;17.83;;;25.00;78.40;;;;;;2314767;54;20982;-74
2021/06/08 12:57:42;;;;;;;21.42;17.70;;;25.00;78.10;;;;;;2305798;54;20969;-71
2021/06/08 13:00:15;;;;;;;20.58;16.70;;;25.10;77.70;;;;;;2542287;54;21028;-70
2021/06/08 13:02:45;;;;;;;20.95;17.95;;;25.20;78.30;;;;;;2299972;54;20944;-70
2021/06/08 13:05:13;;;;;;;20.45;17.27;;;25.30;78.10;;;;;;2293197;54;21091;-72
2021/06/08 13:07:42;;;;;;;20.35;17.40;;;25.40;78.60;;;;;;2535705;54;21400;-71
2021/06/08 13:10:12;;;;;;;19.37;16.35;;;25.50;78.50;;;;;;2302531;54;21001;-71
2021/06/08 13:12:46;;;;;;;20.83;18.17;;;25.60;78.40;;;;;;2331981;54;21375;-75
2021/06/08 13:15:14;;;;;;;19.52;17.20;;;25.70;78.00;;;;;;2296360;54;21595;-70
2021/06/08 13:17:42;;;;;;;19.75;17.52;;;25.90;78.40;;;;;;2301280;54;20940;-69
2021/06/08 13:20:26;;;;;;;20.08;17.15;;;25.90;78.10;;;;;;2301688;53;21004;-70
2021/06/08 13:22:52;;;;;;;18.90;16.48;;;26.00;76.10;;;;;;2301912;53;20995;-72